Northern Sonoma County Latest

25 Stations

15 Minute Data | America/Los_Angeles
as of 5/4/26 7:05 PM PDT
Station Date Time Temp (°F) RH (%) Dew Pt (°F) Wind Spd (mph) Wind Dir (°) Wind Gust (mph) Latest Rain (In) Daily Rain (In) Daily Max Temp (°F) Daily Min Temp (°F)
Bavarian Lion EFW 5/4/26 1900 54.2   5.1 - - - - - 0.02 0.24 67.6   2.0 46.8   5.1
Rockpile Lower (Cooley) 5/4/26 1845 51.7   2.3 95   22 50.4   4.8 4.5   1.5 W | 265 7.3   6.0 0.00 0.04 62.4   0.6 48.7   0.7
Rockpile Upper (Cooley) 5/4/26 1900 49.0   1.4 100   20 49.0   4.5 3.9   0.3 WSW | 243 10.7   3.7 0.00 0.05 60.1   1.3 45.5   1.2
Lower Dry Creek Valley 5/4/26 1900 55.8   5.5 100   42 55.8   9.3 1.4   0.7 SSE | 147 4.8   2.0 0.00 0.14 69.1   0.9 48.5   4.8
Geyserville-South (Nervo Station) 5/4/26 1900 55.0   5.3 - - 2.1   0.3 SSE | 167 4.8   1.7 0.00 0.00 68.7   3.9 50.2   1.7
Franz Valley (Stornetta) 5/4/26 1900 53.4   5.7 92   25 51.3   3.0 2.8   0.8 SSE | 152 3.9   0.4 0.02 0.21 65.6   0.8 45.8   5.9
Geyserville (Ranch 3) 5/4/26 1900 56.4   5.6 95   38 55.1   8.4 0.9   2.5 E | 82 3.1   3.2 0.00 0.07 67.7   1.1 51.6   1.2
Geyserville-North (Hoffman) 5/4/26 1900 57.0   4.7 90   29 54.1   6.1 1.2   1.2 E | 91 3.1   2.0 0.00 0.00 67.6   0.1 50.9   2.2
Knights Valley (Bavarian Lion) 5/4/26 1900 53.7   4.4 93   30 51.7   6.4 3.8   0.8 S | 179 5.7   0.8 0.02 0.22 67.1   3.0 46.8   4.8
HWY 128/Chalk Hill Rd (Landslide) 5/4/26 1900 54.3   6.2 94   33 52.7   5.7 3.9   2.2 S | 177 7.5   3.2 0.02 0.24 68.1   0.1 50.5   2.5
Newman Knights Valley 5/4/26 1900 55.1   4.6 86   17 51.1   1.3 1.4   0.1 S | 173 3.9   0.6 0.02 0.24 65.6   1.7 50.6   1.9
Jimtown-North (Piccolo Ranch 15) 5/4/26 1900 55.0   6.1 100   43 55.1   9.0 0.7   1.2 SE | 136 3.5   2.4 0.00 0.22 66.9   0.3 50.9   1.8
Peterson (Ranch 09) 5/4/26 1900 54.8   6.0 93   37 52.9   7.9 2.9   0.2 S | 169 4.8   1.7 0.00 0.13 67.4   1.3 49.8   2.3
Cloverdale-SE (Ranch 38) 5/4/26 1900 54.5   3.7 94   24 52.8   4.4 4.4   1.3 SSE | 154 7.0   1.2 0.00 0.04 64.0   1.9 49.5   1.4
Geyserville-East (Ranch 40) 5/4/26 1900 53.4   4.8 99   30 53.0   5.2 6.6   2.9 S | 184 9.9   2.5 0.00 0.13 66.9   0.8 49.2   0.8
N Chalk Hill Rd (Ranch 63) 5/4/26 1900 51.9   8.7 99   40 51.8   5.5 4.0   1.9 SSE | 153 7.8   4.0 0.02 0.25 67.8   2.5 49.1   2.1
Cloverdale-East (Ranch 83) 5/4/26 1900 56.2   3.9 - - 3.4   2.4 SE | 146 7.3   4.3 0.00 0.02 65.8   2.2 50.9   1.9
Crazy Creek Ranch 5/4/26 1900 54.9   6.3 96   32 53.9   4.7 3.5   1.4 SE | 126 6.5   2.0 0.00 0.18 66.8   0.0 51.6   0.7
Lytton East (Hill 5) 5/4/26 1900 54.5   5.5 96   35 53.2   7.1 4.4   1.2 SSE | 161 7.3   1.3 0.00 0.16 67.3   0.1 49.2   2.8
Lytton East (Shop Hill Bottom) 5/4/26 1900 54.8   5.5 95   36 53.4   7.7 2.9   0.2 SSE | 156 5.6   0.4 0.00 0.16 67.2   0.2 48.4   3.7
Lytton West Hill (23PS) 5/4/26 1900 55.2   5.3 96   37 53.9   7.9 3.5   0.4 SSE | 164 6.0   0.1 0.00 0.17 67.2   0.5 49.1   3.5
Lytton West Lower (Lew 6) 5/4/26 1900 55.2   5.0 94   33 53.5   6.9 2.9   0.8 SE | 145 4.8   1.6 0.01 0.17 66.9   0.3 47.5   4.9
Whitton Ranch (201e) 5/4/26 1900 55.3   5.6 96   38 54.3   7.9 2.3   0.1 SSE | 157 5.1   1.1 0.01 0.14 68.1   1.0 49.8   2.6
Upper Dry Creek Valley 5/4/26 1900 56.2   5.1 90   31 53.4   6.5 1.7   1.0 S | 183 3.3   2.5 0.00 0.05 67.8   0.1 48.2   5.0
Big River 5/4/26 1900 54.2   6.5 98   36 53.6   6.1 3.5   1.4 SSE | 149 6.3   0.9 0.01 0.19 65.3   0.5 48.9   3.4
Max     57.0 100 55.8 6.6 - 10.7 0.02 0.25 69.1 51.6
Avg     54.5 95 53.0 3.0 - 5.8 0.01 - - -
Min     49.0 86 49.0 0.7 - 3.1 0.00 0.00 60.1 45.5